createdAt,value
2018-12-10T00:01:56.828Z,6.00
2018-12-10T00:04:25.674Z,5.90
2018-12-10T00:06:54.557Z,5.90
2018-12-10T00:09:23.351Z,5.90
2018-12-10T00:11:52.212Z,5.90
2018-12-10T00:14:21.005Z,5.90
2018-12-10T00:16:49.854Z,5.90
2018-12-10T00:19:18.899Z,5.80
2018-12-10T00:21:47.779Z,5.80
2018-12-10T00:24:16.569Z,5.80
2018-12-10T00:26:45.382Z,5.80
2018-12-10T00:29:15.461Z,5.70
2018-12-10T00:31:44.675Z,5.70
2018-12-10T00:34:13.506Z,5.70
2018-12-10T00:36:42.648Z,5.70
2018-12-10T00:39:11.483Z,5.70
2018-12-10T00:41:40.324Z,5.70
2018-12-10T00:44:09.925Z,5.60
2018-12-10T00:46:38.786Z,5.60
2018-12-10T00:49:07.731Z,5.60
2018-12-10T00:51:36.530Z,5.40
2018-12-10T00:54:05.401Z,5.40
2018-12-10T00:56:34.360Z,5.30
2018-12-10T00:59:03.653Z,5.30
2018-12-10T01:01:32.542Z,5.20
2018-12-10T01:04:01.331Z,5.20
2018-12-10T01:06:30.211Z,5.10
2018-12-10T01:08:59.033Z,5.10
2018-12-10T01:11:27.844Z,5.00
2018-12-10T01:13:56.706Z,5.00
2018-12-10T01:16:25.508Z,4.90
2018-12-10T01:18:54.325Z,4.80
2018-12-10T01:21:23.153Z,4.70
2018-12-10T01:23:52.024Z,4.60
2018-12-10T01:26:20.888Z,4.70
2018-12-10T01:28:49.664Z,4.70
2018-12-10T01:31:18.579Z,4.80
2018-12-10T01:33:47.343Z,4.80
2018-12-10T01:36:16.188Z,4.80
2018-12-10T01:38:44.966Z,4.80
2018-12-10T01:41:13.798Z,4.80
2018-12-10T01:43:42.630Z,4.80
2018-12-10T01:46:11.447Z,4.70
2018-12-10T01:48:40.255Z,4.70
2018-12-10T01:51:09.059Z,4.70
2018-12-10T01:53:37.971Z,4.70
2018-12-10T01:56:06.739Z,4.70
2018-12-10T01:58:35.564Z,4.70
2018-12-10T02:01:04.367Z,4.60
2018-12-10T02:03:33.220Z,4.60
2018-12-10T02:06:02.087Z,4.60
2018-12-10T02:08:30.933Z,4.60
2018-12-10T02:10:59.729Z,4.50
2018-12-10T02:13:28.615Z,4.50
2018-12-10T02:15:57.434Z,4.40
2018-12-10T02:18:26.225Z,4.40
2018-12-10T02:20:55.043Z,4.50
2018-12-10T02:23:23.868Z,4.50
2018-12-10T02:25:52.738Z,4.60
2018-12-10T02:28:26.804Z,4.60
2018-12-10T02:30:55.622Z,4.60
2018-12-10T02:33:24.433Z,4.50
2018-12-10T02:35:53.291Z,4.50
2018-12-10T02:38:22.096Z,4.50
2018-12-10T02:40:51.063Z,4.60
2018-12-10T02:43:19.836Z,4.60
2018-12-10T02:45:48.632Z,4.60
2018-12-10T02:48:17.392Z,4.60
2018-12-10T02:50:46.227Z,4.40
2018-12-10T02:53:14.995Z,4.40
2018-12-10T02:55:43.850Z,4.40
2018-12-10T02:58:12.645Z,4.40
2018-12-10T03:00:41.465Z,4.40
2018-12-10T03:03:10.777Z,4.50
2018-12-10T03:05:39.527Z,4.60
2018-12-10T03:08:08.399Z,4.70
2018-12-10T03:10:37.198Z,4.70
2018-12-10T03:13:06.030Z,4.70
2018-12-10T03:15:34.830Z,4.80
2018-12-10T03:18:04.742Z,4.90
2018-12-10T03:20:33.525Z,4.90
2018-12-10T03:23:02.387Z,5.00
2018-12-10T03:25:31.170Z,5.00
2018-12-10T03:27:59.946Z,5.00
2018-12-10T03:30:28.828Z,5.00
2018-12-10T03:32:57.689Z,5.00
2018-12-10T03:35:26.510Z,5.10
2018-12-10T03:37:55.283Z,5.10
2018-12-10T03:40:24.127Z,5.10
2018-12-10T03:42:52.927Z,5.10
2018-12-10T03:45:21.784Z,5.10
2018-12-10T03:47:50.545Z,5.10
2018-12-10T03:50:19.381Z,5.10
2018-12-10T03:52:48.164Z,5.10
2018-12-10T03:55:17.015Z,5.10
2018-12-10T03:57:45.778Z,5.10
2018-12-10T04:00:14.734Z,5.10
2018-12-10T04:02:43.521Z,5.10
2018-12-10T04:05:12.358Z,5.20
2018-12-10T04:07:41.210Z,5.20
2018-12-10T04:10:10.052Z,5.10
2018-12-10T04:12:38.823Z,5.20
2018-12-10T04:15:08.058Z,5.20
2018-12-10T04:17:38.440Z,5.20
2018-12-10T04:20:07.639Z,5.10
2018-12-10T04:22:36.496Z,5.20
2018-12-10T04:25:05.468Z,5.20
2018-12-10T04:27:34.488Z,5.10
2018-12-10T04:30:03.316Z,5.10
2018-12-10T04:32:32.157Z,5.10
2018-12-10T04:35:00.954Z,5.20
2018-12-10T04:37:29.827Z,5.20
2018-12-10T04:39:58.618Z,5.20
2018-12-10T04:42:27.500Z,5.20
2018-12-10T04:44:56.293Z,5.20
2018-12-10T04:47:25.074Z,5.20
2018-12-10T04:49:53.910Z,5.10
2018-12-10T04:52:22.746Z,5.20
2018-12-10T04:54:51.558Z,5.20
2018-12-10T04:57:20.343Z,5.20
2018-12-10T04:59:52.711Z,5.20
2018-12-10T05:02:20.202Z,5.10
2018-12-10T05:04:49.035Z,5.20
2018-12-10T05:07:17.809Z,5.20
2018-12-10T05:09:46.704Z,5.10
2018-12-10T05:12:15.546Z,5.10
2018-12-10T05:14:44.466Z,5.10
2018-12-10T05:17:13.315Z,5.10
2018-12-10T05:19:42.304Z,5.00
2018-12-10T05:22:11.132Z,5.00
2018-12-10T05:24:39.941Z,5.10
2018-12-10T05:27:08.872Z,5.00
2018-12-10T05:29:37.695Z,5.00
2018-12-10T05:32:06.613Z,5.00
2018-12-10T05:34:35.534Z,5.00
2018-12-10T05:37:04.844Z,5.00
2018-12-10T05:39:33.714Z,5.00
2018-12-10T05:42:02.562Z,5.10
2018-12-10T05:44:31.378Z,5.00
2018-12-10T05:47:00.300Z,5.00
2018-12-10T05:49:29.401Z,5.00
2018-12-10T05:51:58.264Z,4.90
2018-12-10T05:54:27.071Z,4.90
2018-12-10T05:56:56.069Z,4.90
2018-12-10T05:59:25.043Z,4.90
2018-12-10T06:01:53.945Z,4.90
2018-12-10T06:04:22.802Z,5.00
2018-12-10T06:06:51.622Z,4.90
2018-12-10T06:09:20.516Z,4.90
2018-12-10T06:11:49.367Z,4.80
2018-12-10T06:14:18.327Z,4.80
2018-12-10T06:16:47.174Z,4.80
2018-12-10T06:19:16.059Z,4.80
2018-12-10T06:21:44.834Z,4.80
2018-12-10T06:24:13.672Z,4.80
2018-12-10T06:26:42.465Z,4.70
2018-12-10T06:29:11.346Z,4.70
2018-12-10T06:31:40.130Z,4.70
2018-12-10T06:34:09.264Z,4.70
2018-12-10T06:36:38.340Z,4.60
2018-12-10T06:39:08.320Z,4.60
2018-12-10T06:41:37.149Z,4.60
2018-12-10T06:44:05.988Z,4.60
2018-12-10T06:46:34.881Z,4.60
2018-12-10T06:49:03.772Z,4.60
2018-12-10T06:51:32.634Z,4.60
2018-12-10T06:54:01.445Z,4.60
2018-12-10T06:56:30.314Z,4.60
2018-12-10T06:58:59.110Z,4.50
2018-12-10T07:01:27.964Z,4.50
2018-12-10T07:06:24.701Z,4.40
2018-12-10T07:08:53.528Z,4.40
2018-12-10T07:11:22.437Z,4.40
2018-12-10T07:13:51.255Z,4.50
2018-12-10T07:16:20.169Z,4.50
2018-12-10T07:18:49.203Z,4.50
2018-12-10T07:21:18.112Z,4.60
2018-12-10T07:23:46.973Z,4.50
2018-12-10T07:26:15.829Z,4.40
2018-12-10T07:28:44.659Z,4.40
2018-12-10T07:31:13.517Z,4.30
2018-12-10T07:33:42.373Z,4.30
2018-12-10T07:36:11.219Z,4.30
2018-12-10T07:38:40.060Z,4.30
2018-12-10T07:41:08.877Z,4.40
2018-12-10T07:43:37.710Z,4.50
2018-12-10T07:46:06.651Z,4.50
2018-12-10T07:48:35.540Z,4.50
2018-12-10T07:51:04.619Z,4.50
2018-12-10T07:53:34.942Z,4.50
2018-12-10T07:56:03.988Z,4.50
2018-12-10T07:58:32.837Z,4.60
2018-12-10T08:01:02.017Z,4.60
2018-12-10T08:03:30.951Z,4.60
2018-12-10T08:05:59.808Z,4.70
2018-12-10T08:08:28.679Z,4.80
2018-12-10T08:10:57.501Z,4.90
2018-12-10T08:13:26.359Z,5.00
2018-12-10T08:15:55.249Z,5.00
2018-12-10T08:18:24.158Z,5.10
2018-12-10T08:20:53.042Z,5.20
2018-12-10T08:23:22.003Z,5.20
2018-12-10T08:25:50.875Z,5.20
2018-12-10T08:28:19.824Z,5.20
2018-12-10T08:30:48.669Z,5.20
2018-12-10T08:33:17.479Z,5.20
2018-12-10T08:35:46.427Z,5.10
2018-12-10T08:38:15.467Z,5.10
2018-12-10T08:40:44.521Z,5.00
2018-12-10T08:43:13.410Z,4.80
2018-12-10T08:45:42.357Z,4.70
2018-12-10T08:48:11.297Z,4.70
2018-12-10T08:50:40.170Z,4.60
2018-12-10T08:53:09.013Z,4.50
2018-12-10T08:55:37.906Z,4.30
2018-12-10T08:58:06.727Z,4.20
2018-12-10T09:00:35.645Z,4.10
2018-12-10T09:03:04.514Z,4.20
2018-12-10T09:05:33.425Z,4.30
2018-12-10T09:08:02.270Z,4.50
2018-12-10T09:10:31.191Z,4.80
2018-12-10T09:13:00.025Z,4.90
2018-12-10T09:15:28.862Z,5.10
2018-12-10T09:17:57.743Z,5.50
2018-12-10T09:20:26.603Z,5.60
2018-12-10T09:22:55.492Z,5.90
2018-12-10T09:25:25.434Z,6.10
2018-12-10T09:27:55.312Z,6.10
2018-12-10T09:30:24.163Z,6.30
2018-12-10T09:35:43.751Z,6.30
2018-12-10T09:38:12.482Z,6.40
2018-12-10T09:40:41.235Z,6.50
2018-12-10T09:43:11.128Z,6.60
2018-12-10T09:45:39.973Z,6.60
2018-12-10T09:48:08.665Z,6.50
2018-12-10T09:50:37.402Z,6.70
2018-12-10T09:53:06.057Z,6.70
2018-12-10T09:55:34.810Z,6.60
2018-12-10T09:58:03.444Z,6.30
2018-12-10T10:00:32.215Z,6.00
2018-12-10T10:03:00.925Z,5.80
2018-12-10T10:05:29.629Z,5.60
2018-12-10T10:07:58.370Z,5.60
2018-12-10T10:10:27.071Z,5.60
2018-12-10T10:12:55.855Z,5.70
2018-12-10T10:15:25.286Z,5.60
2018-12-10T10:17:54.120Z,5.60
2018-12-10T10:20:23.628Z,5.70
2018-12-10T10:22:52.555Z,5.80
2018-12-10T10:25:21.256Z,5.90
2018-12-10T10:27:49.988Z,5.90
2018-12-10T10:30:18.772Z,5.90
2018-12-10T10:32:47.483Z,5.80
2018-12-10T10:35:16.194Z,5.80
2018-12-10T10:37:45.111Z,5.80
2018-12-10T10:40:13.830Z,5.80
2018-12-10T10:42:42.546Z,5.80
2018-12-10T10:45:11.398Z,5.80
2018-12-10T10:47:40.137Z,5.80
2018-12-10T10:50:09.012Z,5.80
2018-12-10T10:52:37.959Z,5.80
2018-12-10T10:55:06.816Z,5.70
2018-12-10T10:57:35.492Z,5.70
2018-12-10T11:00:07.493Z,5.80
2018-12-10T11:02:41.523Z,5.80
2018-12-10T11:05:10.304Z,5.80
2018-12-10T11:07:39.020Z,5.90
2018-12-10T11:10:07.980Z,6.10
2018-12-10T11:12:36.756Z,6.10
2018-12-10T11:15:05.971Z,6.20
2018-12-10T11:17:34.736Z,6.20
2018-12-10T11:20:03.550Z,6.20
2018-12-10T11:22:32.287Z,6.10
2018-12-10T11:25:00.977Z,6.10
2018-12-10T11:27:29.708Z,6.10
2018-12-10T11:29:58.433Z,6.00
2018-12-10T11:32:27.216Z,6.00
2018-12-10T11:34:55.994Z,6.00
2018-12-10T11:37:24.662Z,5.90
2018-12-10T11:39:53.343Z,6.00
2018-12-10T11:42:22.069Z,6.00
2018-12-10T11:44:50.817Z,6.00
2018-12-10T11:47:19.479Z,5.90
2018-12-10T11:49:48.161Z,5.80
2018-12-10T11:52:16.904Z,5.90
2018-12-10T11:54:45.702Z,5.90
2018-12-10T11:57:14.530Z,5.80
2018-12-10T11:59:43.224Z,5.70
2018-12-10T12:02:11.890Z,5.60
2018-12-10T12:04:40.661Z,5.60
2018-12-10T12:07:09.339Z,5.60
2018-12-10T12:09:38.072Z,5.60
2018-12-10T12:12:06.769Z,5.50
2018-12-10T12:14:35.492Z,5.50
2018-12-10T12:17:04.397Z,5.40
2018-12-10T12:19:33.362Z,5.50
2018-12-10T12:22:05.152Z,5.50
2018-12-10T12:24:32.824Z,5.60
2018-12-10T12:27:01.609Z,5.60
2018-12-10T12:29:30.314Z,5.60
2018-12-10T12:31:58.998Z,5.70
2018-12-10T12:34:27.689Z,5.70
2018-12-10T12:36:56.360Z,5.70
2018-12-10T12:39:25.069Z,5.60
2018-12-10T12:41:53.789Z,5.60
2018-12-10T12:44:22.494Z,5.50
2018-12-10T12:46:59.568Z,5.50
2018-12-10T12:49:48.157Z,5.40
2018-12-10T12:52:22.097Z,5.40
2018-12-10T12:55:06.468Z,5.20
2018-12-10T12:57:36.942Z,5.30
2018-12-10T13:00:10.298Z,5.20
2018-12-10T13:02:40.089Z,5.20
2018-12-10T13:05:45.431Z,5.30
2018-12-10T13:08:31.808Z,5.20
2018-12-10T13:11:01.305Z,5.30
2018-12-10T13:13:51.565Z,5.30
2018-12-10T13:16:20.802Z,5.30
2018-12-10T13:18:49.536Z,5.30
2018-12-10T13:21:18.511Z,5.30
2018-12-10T13:23:47.982Z,5.30
2018-12-10T13:26:18.558Z,5.30
2018-12-10T13:28:51.882Z,5.20
2018-12-10T13:31:20.793Z,5.20
2018-12-10T13:33:49.715Z,5.20
2018-12-10T13:36:19.415Z,5.20
2018-12-10T13:38:50.281Z,5.20
2018-12-10T13:41:23.133Z,5.20
2018-12-10T13:43:52.011Z,5.20
2018-12-10T13:46:22.182Z,5.20
2018-12-10T13:48:54.583Z,5.20
2018-12-10T13:51:24.513Z,5.20
2018-12-10T13:53:53.617Z,5.20
2018-12-10T13:56:22.343Z,5.20
2018-12-10T13:58:51.398Z,5.30
2018-12-10T14:01:25.999Z,5.30
2018-12-10T14:04:02.403Z,5.20
2018-12-10T14:06:31.257Z,5.20
2018-12-10T14:09:00.174Z,5.20
2018-12-10T14:11:33.642Z,5.20
2018-12-10T14:14:09.881Z,5.20
2018-12-10T14:16:45.615Z,5.10
2018-12-10T14:19:18.001Z,5.10
2018-12-10T14:21:59.151Z,5.10
2018-12-10T14:24:31.196Z,5.10
2018-12-10T14:27:04.327Z,5.00
2018-12-10T14:29:33.210Z,5.00
2018-12-10T14:32:02.165Z,5.00
2018-12-10T14:34:31.040Z,4.90
2018-12-10T14:36:59.998Z,4.90
2018-12-10T14:39:37.618Z,4.90
2018-12-10T14:42:30.024Z,4.80
2018-12-10T14:44:59.028Z,4.70
2018-12-10T14:47:27.918Z,4.70
2018-12-10T14:49:56.917Z,4.70
2018-12-10T14:52:25.787Z,4.60
2018-12-10T14:54:54.467Z,4.60
2018-12-10T14:57:23.149Z,4.60
2018-12-10T14:59:51.844Z,4.60
2018-12-10T15:02:20.473Z,4.60
2018-12-10T15:04:49.157Z,4.70
2018-12-10T15:07:17.933Z,4.70
2018-12-10T15:09:46.642Z,4.70
2018-12-10T15:12:15.943Z,4.70
2018-12-10T15:14:44.681Z,4.60
2018-12-10T15:17:13.362Z,4.60
2018-12-10T15:19:42.061Z,4.70
2018-12-10T15:22:10.723Z,4.70
2018-12-10T15:24:39.423Z,4.70
2018-12-10T15:27:08.187Z,4.70
2018-12-10T15:29:37.355Z,4.70
2018-12-10T15:32:06.248Z,4.60
2018-12-10T15:34:37.439Z,4.60
2018-12-10T15:37:07.345Z,4.60
2018-12-10T15:39:36.283Z,4.60
2018-12-10T15:42:05.296Z,4.70
2018-12-10T15:44:38.997Z,4.60
2018-12-10T15:47:08.177Z,4.60
2018-12-10T15:49:37.681Z,4.50
2018-12-10T15:52:06.383Z,4.40
2018-12-10T15:54:35.525Z,4.40
2018-12-10T15:57:05.489Z,4.30
2018-12-10T15:59:34.487Z,4.20
2018-12-10T16:02:06.003Z,4.10
2018-12-10T16:04:36.305Z,4.10
2018-12-10T16:07:12.558Z,4.10
2018-12-10T16:09:54.243Z,4.00
2018-12-10T16:12:32.571Z,4.00
2018-12-10T16:15:06.238Z,3.90
2018-12-10T16:17:35.260Z,3.80
2018-12-10T16:20:05.223Z,3.80
2018-12-10T16:22:34.168Z,3.80
2018-12-10T16:25:10.601Z,3.70
2018-12-10T16:27:44.713Z,3.70
2018-12-10T16:30:26.979Z,3.60
2018-12-10T16:32:56.989Z,3.60
2018-12-10T16:35:26.295Z,3.60
2018-12-10T16:37:55.373Z,3.60
2018-12-10T16:40:37.285Z,3.60
2018-12-10T16:43:06.369Z,3.60
2018-12-10T16:45:36.902Z,3.50
2018-12-10T16:48:07.795Z,3.50
2018-12-10T16:53:23.327Z,3.50
2018-12-10T16:56:04.873Z,3.50
2018-12-10T17:01:14.744Z,3.60
2018-12-10T17:03:53.161Z,3.60
2018-12-10T17:06:22.549Z,3.70
2018-12-10T17:08:51.583Z,3.60
2018-12-10T17:11:33.443Z,3.60
2018-12-10T17:14:03.162Z,3.60
2018-12-10T17:16:44.733Z,3.70
2018-12-10T17:19:14.009Z,3.70
2018-12-10T17:22:01.618Z,3.70
2018-12-10T17:24:38.393Z,3.70
2018-12-10T17:27:12.830Z,3.70
2018-12-10T17:29:48.148Z,3.70
2018-12-10T17:32:25.677Z,3.60
2018-12-10T17:35:01.522Z,3.60
2018-12-10T17:37:46.670Z,3.60
2018-12-10T17:40:23.463Z,3.70
2018-12-10T17:43:05.914Z,3.70
2018-12-10T17:45:47.906Z,3.70
2018-12-10T17:48:28.213Z,3.70
2018-12-10T17:51:04.586Z,3.70
2018-12-10T17:53:46.204Z,3.60
2018-12-10T17:56:23.467Z,3.70
2018-12-10T17:58:53.744Z,3.70
2018-12-10T18:01:23.611Z,3.70
2018-12-10T18:13:35.349Z,3.70
2018-12-10T18:16:07.059Z,3.70
2018-12-10T18:18:55.765Z,3.80
2018-12-10T18:21:35.174Z,3.70
2018-12-10T18:24:17.742Z,3.70
2018-12-10T18:26:51.523Z,3.70
2018-12-10T18:29:20.427Z,3.70
2018-12-10T18:32:01.959Z,3.70
2018-12-10T18:34:43.190Z,3.70
2018-12-10T18:37:27.791Z,3.70
2018-12-10T18:40:03.928Z,3.70
2018-12-10T18:42:40.325Z,3.80
2018-12-10T18:45:16.833Z,3.80
2018-12-10T18:47:55.598Z,3.80
2018-12-10T18:50:42.505Z,3.70
2018-12-10T18:53:27.721Z,3.80
2018-12-10T18:56:04.255Z,3.70
2018-12-10T18:58:38.178Z,3.70
2018-12-10T19:01:14.748Z,3.70
2018-12-10T19:03:43.569Z,3.70
2018-12-10T19:06:12.363Z,3.70
2018-12-10T19:08:41.291Z,3.70
2018-12-10T19:11:10.395Z,3.80
2018-12-10T19:13:39.061Z,3.70
2018-12-10T19:16:08.089Z,3.70
2018-12-10T19:18:36.801Z,3.70
2018-12-10T19:21:05.638Z,3.70
2018-12-10T19:23:34.315Z,3.70
2018-12-10T19:26:03.876Z,3.80
2018-12-10T19:28:32.657Z,3.80
2018-12-10T19:31:01.421Z,3.80
2018-12-10T19:33:30.235Z,3.90
2018-12-10T19:35:58.995Z,3.80
2018-12-10T19:38:28.046Z,3.80
2018-12-10T19:40:56.753Z,3.80
2018-12-10T19:43:25.517Z,3.80
2018-12-10T19:45:54.192Z,3.80
2018-12-10T19:48:22.968Z,3.80
2018-12-10T19:50:54.174Z,3.80
2018-12-10T19:53:23.019Z,3.90
2018-12-10T19:55:51.761Z,3.90
2018-12-10T19:58:20.493Z,3.90
2018-12-10T20:00:49.247Z,3.90
2018-12-10T20:03:19.435Z,3.90
2018-12-10T20:05:54.608Z,3.90
2018-12-10T20:08:23.427Z,3.90
2018-12-10T20:10:52.124Z,3.90
2018-12-10T20:13:21.719Z,3.90
2018-12-10T20:15:50.529Z,3.90
2018-12-10T20:18:27.034Z,4.00
2018-12-10T20:20:56.190Z,4.00
2018-12-10T20:23:25.412Z,4.00
2018-12-10T20:25:54.207Z,4.00
2018-12-10T20:28:23.046Z,3.90
2018-12-10T20:30:51.885Z,3.90
2018-12-10T20:33:20.672Z,3.80
2018-12-10T20:35:49.539Z,3.80
2018-12-10T20:38:18.240Z,3.90
2018-12-10T20:40:47.961Z,3.80
2018-12-10T20:43:16.646Z,3.80
2018-12-10T20:45:45.395Z,3.80
2018-12-10T20:48:14.133Z,3.80
2018-12-10T20:50:45.826Z,3.80
2018-12-10T20:53:14.513Z,3.80
2018-12-10T20:55:43.231Z,3.80
2018-12-10T20:58:11.901Z,3.80
2018-12-10T21:00:41.799Z,3.70
2018-12-10T21:03:11.170Z,3.80
2018-12-10T21:05:45.291Z,3.70
2018-12-10T21:08:14.613Z,3.70
2018-12-10T21:10:44.086Z,3.80
2018-12-10T21:13:12.801Z,3.80
2018-12-10T21:15:42.464Z,3.80
2018-12-10T21:18:11.477Z,3.90
2018-12-10T21:20:40.245Z,3.80
2018-12-10T21:23:08.920Z,3.80
2018-12-10T21:25:37.684Z,3.70
2018-12-10T21:28:06.409Z,3.70
2018-12-10T21:30:35.290Z,3.70
2018-12-10T21:33:04.031Z,3.70
2018-12-10T21:35:33.037Z,3.60
2018-12-10T21:38:01.773Z,3.60
2018-12-10T21:40:30.709Z,3.70
2018-12-10T21:42:59.641Z,3.60
2018-12-10T21:45:28.363Z,3.70
2018-12-10T21:47:57.113Z,3.70
2018-12-10T21:50:25.849Z,3.70
2018-12-10T21:52:54.601Z,3.80
2018-12-10T21:55:24.316Z,3.80
2018-12-10T21:57:53.138Z,3.80
2018-12-10T22:00:21.859Z,3.80
2018-12-10T22:02:50.664Z,3.80
2018-12-10T22:05:19.384Z,3.80
2018-12-10T22:07:48.093Z,3.80
2018-12-10T22:10:16.794Z,3.80
2018-12-10T22:12:45.523Z,3.70
2018-12-10T22:15:14.251Z,3.80
2018-12-10T22:17:42.908Z,3.70
2018-12-10T22:20:11.615Z,3.80
2018-12-10T22:22:40.309Z,3.80
2018-12-10T22:25:09.021Z,3.80
2018-12-10T22:27:37.724Z,3.70
2018-12-10T22:30:07.477Z,3.60
2018-12-10T22:32:36.114Z,3.60
2018-12-10T22:35:05.184Z,3.60
2018-12-10T22:37:33.919Z,3.60
2018-12-10T22:40:02.609Z,3.60
2018-12-10T22:42:31.367Z,3.50
2018-12-10T22:45:00.097Z,3.50
2018-12-10T22:47:28.945Z,3.60
2018-12-10T22:49:57.656Z,3.60
2018-12-10T22:52:26.334Z,3.70
2018-12-10T22:54:55.040Z,3.80
2018-12-10T22:57:23.762Z,3.80
2018-12-10T22:59:52.530Z,3.80
2018-12-10T23:02:21.231Z,3.90
2018-12-10T23:04:49.990Z,3.90
2018-12-10T23:07:18.668Z,3.90
2018-12-10T23:09:47.355Z,3.90
2018-12-10T23:12:15.999Z,3.90
2018-12-10T23:14:44.712Z,3.90
2018-12-10T23:17:13.339Z,3.90
2018-12-10T23:19:42.050Z,4.00
2018-12-10T23:22:10.720Z,4.00
2018-12-10T23:24:39.440Z,4.00
2018-12-10T23:27:08.122Z,3.90
2018-12-10T23:29:36.807Z,3.90
2018-12-10T23:32:05.769Z,3.90
2018-12-10T23:34:34.489Z,3.90
2018-12-10T23:37:03.140Z,3.90
2018-12-10T23:39:31.876Z,3.90
2018-12-10T23:42:00.516Z,4.00
2018-12-10T23:44:34.697Z,4.00
2018-12-10T23:47:03.416Z,3.90
2018-12-10T23:49:32.423Z,4.00
2018-12-10T23:52:01.073Z,3.90
2018-12-10T23:54:29.778Z,4.00
2018-12-10T23:56:58.411Z,3.90
2018-12-10T23:59:27.062Z,4.00
